Hanjin Valencia — 3FSR7 — position and weather

sailwx.info

Track history (hours):
 
Tides and Currents Weather Stations Pressure Air Temp Water Temp Dewpoint Dewpoint Depression Visibility Wind Speed Wind Dir Waves Ship Positions

Hanjin Valencia

Last reported at 2018-Apr-13 09:00 UTC. Time now 2018-Apr-19 21:16 UTC.
Position N 29°00' W 094°09'.

Length 183 m; draft 10.9 m.

Type: Tanker. MMSI: 374057000.

Date/timePositionNaut miles runAvg speedWind from/ knotsBaromVisibWave heightAir tempDewpointWater temp
2018-Apr-13 09:00N 29°00' W 094°09'713.0
2018-Apr-13 08:29N 29°04' W 094°15'712.8
2018-Apr-13 07:55N 29°08' W 094°22'512.6
2018-Apr-13 07:30N 29°09' W 094°28'712.6
2018-Apr-13 06:57N 29°14' W 094°34'511.4
2018-Apr-13 06:30N 29°18' W 094°37'611.6
2018-Apr-13 06:00N 29°21' W 094°43'611.1
2018-Apr-13 05:30N 29°24' W 094°49'611.8
2018-Apr-13 05:00N 29°29' W 094°52'611.7
2018-Apr-13 04:30N 29°34' W 094°55'611.2
2018-Apr-13 04:00N 29°39' W 094°58'4 8.7
2018-Apr-13 03:30N 29°42' W 095°01'3 6.7
2018-Apr-13 03:00N 29°45' W 095°04'2 4.8
2018-Apr-13 02:30N 29°44' W 095°07'3 5.2
2018-Apr-13 02:00N 29°44' W 095°10'2 4.2
2018-Apr-13 01:30N 29°44' W 095°12'0 0.0
2018-Apr-12 13:50N 29°45' W 095°12'0 0.0
2018-Apr-12 13:05N 29°45' W 095°12'0 0.0
2018-Apr-12 12:41N 29°45' W 095°12'0 0.0
2018-Apr-12 12:26N 29°45' W 095°12'0 0.0
2018-Apr-12 08:11N 29°45' W 095°12'0 0.0
2018-Apr-12 07:53N 29°45' W 095°12'0 0.0
2018-Apr-12 07:23N 29°45' W 095°12'0 0.0
2018-Apr-12 06:56N 29°45' W 095°12'0 0.0
2018-Apr-12 05:32N 29°45' W 095°12'0 0.0
2018-Apr-12 05:20N 29°45' W 095°12'0 0.0
2018-Apr-12 04:59N 29°45' W 095°12'0 0.0
2018-Apr-12 03:47N 29°45' W 095°12'0 0.0
2018-Apr-12 03:26N 29°45' W 095°12'0 0.0
2018-Apr-10 23:14N 29°45' W 095°12'0 0.0
2018-Apr-10 22:59N 29°45' W 095°12'0 0.2
2018-Apr-10 22:30N 29°44' W 095°12'3 5.7
2018-Apr-10 22:01N 29°44' W 095°09'3 6.1
2018-Apr-10 21:30N 29°45' W 095°06'4 7.2
2018-Apr-10 21:01N 29°44' W 095°02'5 9.2
2018-Apr-10 20:30N 29°40' W 094°59'611.9
2018-Apr-10 20:01N 29°35' W 094°56'612.9
2018-Apr-10 19:31N 29°29' W 094°52'714.0
2018-Apr-10 19:00N 29°23' W 094°49'713.3
2018-Apr-10 18:30N 29°20' W 094°41'6 1.6
2018-Apr-10 14:57N 29°20' W 094°35'0 0.0
2018-Apr-10 14:18N 29°20' W 094°35'0 0.0
2018-Apr-10 13:57N 29°20' W 094°35'0 0.0
2018-Apr-10 13:27N 29°20' W 094°35'0 0.0
2018-Apr-10 13:00N 29°20' W 094°35'0 0.0
2018-Apr-10 12:30N 29°20' W 094°35'0 0.0
2018-Apr-10 12:00N 29°20' W 094°35'0 0.0
2018-Apr-10 11:30N 29°20' W 094°35'0 0.0
2018-Apr-10 11:00N 29°20' W 094°35'0 0.0
2018-Apr-10 10:27N 29°20' W 094°35'0 0.0
2018-Apr-10 10:00N 29°20' W 094°35'0 0.0
2018-Apr-10 09:15N 29°20' W 094°35'0 0.0
2018-Apr-10 08:57N 29°20' W 094°35'0 0.0
2018-Apr-10 07:39N 29°20' W 094°35'0 0.0
2018-Apr-10 07:24N 29°20' W 094°35'0 0.1
2018-Apr-10 06:48N 29°20' W 094°35'0 0.0
2018-Apr-10 00:00N 29°20' W 094°35'0 0.0
2018-Apr-09 00:47N 29°20' W 094°35'0 0.0
2018-Apr-08 10:23N 29°20' W 094°35'0 0.0
2018-Apr-07 05:38N 29°20' W 094°35'0 0.0
2018-Apr-07 05:29N 29°20' W 094°35'0 0.0
2018-Apr-07 02:35N 29°20' W 094°35'0 0.1
2018-Apr-07 02:17N 29°20' W 094°35'0 0.1
2018-Apr-07 00:41N 29°20' W 094°35'0 0.0
2018-Apr-07 00:23N 29°20' W 094°35'0 0.0
2018-Apr-06 12:23N 29°20' W 094°35'0 0.0
2018-Apr-06 10:53N 29°20' W 094°35'0 0.0
2018-Apr-06 10:02N 29°20' W 094°35'0 0.0
2018-Apr-06 09:50N 29°20' W 094°35'0 0.0
2018-Apr-06 09:11N 29°20' W 094°35'0 0.0
2018-Apr-06 05:41N 29°20' W 094°35'8 1.1
2018-Apr-05 22:03N 29°21' W 094°44'112.6
2018-Apr-05 22:00N 29°21' W 094°45'511.0
2018-Apr-05 21:30N 29°24' W 094°49'611.6
2018-Apr-05 21:00N 29°30' W 094°52'611.5
2018-Apr-05 20:31N 29°34' W 094°56'5 9.2
2018-Apr-05 20:00N 29°39' W 094°58'5 9.1
2018-Apr-05 19:30N 29°42' W 095°01'4 7.6
2018-Apr-05 19:01N 29°45' W 095°04'3 6.5
2018-Apr-05 18:31N 29°44' W 095°07'3 5.9
2018-Apr-05 18:00N 29°45' W 095°11'1 0.0
2018-Apr-04 21:06N 29°45' W 095°11'0 0.0
2018-Apr-04 21:00N 29°45' W 095°11'1 2.0
2018-Apr-04 20:30N 29°45' W 095°10'3 6.0
2018-Apr-04 20:00N 29°44' W 095°07'3 5.8
2018-Apr-04 19:30N 29°44' W 095°03'9 9.1
2018-Apr-04 18:30N 29°37' W 094°57'612.3
2018-Apr-04 18:00N 29°32' W 094°54'713.4
2018-Apr-04 17:30N 29°26' W 094°50'712.9
2018-Apr-04 16:58N 29°21' W 094°44'613.0
2018-Apr-04 16:29N 29°19' W 094°38'4 7.4
2018-Apr-04 15:57N 29°20' W 094°34'0 0.2
2018-Apr-04 15:29N 29°20' W 094°34'0 0.0
2018-Apr-04 14:56N 29°20' W 094°34'0 0.0
2018-Apr-04 14:29N 29°20' W 094°34'0 0.0
2018-Apr-04 13:59N 29°20' W 094°34'0 0.0
2018-Apr-04 13:29N 29°20' W 094°34'0 0.0
2018-Apr-04 12:56N 29°20' W 094°34'0 0.0
2018-Apr-04 12:29N 29°20' W 094°34'0 0.0
2018-Apr-04 11:59N 29°20' W 094°34'0 0.0
2018-Apr-04 11:29N 29°20' W 094°34'0 0.0
2018-Apr-04 10:59N 29°20' W 094°34'0 0.0
2018-Apr-04 10:29N 29°20' W 094°34'0 0.0
2018-Apr-04 09:59N 29°20' W 094°34'0 0.0
2018-Apr-04 09:29N 29°20' W 094°34'0 0.0
2018-Apr-04 08:59N 29°20' W 094°34'0 0.0
2018-Apr-04 08:29N 29°20' W 094°34'0 0.0
2018-Apr-04 07:59N 29°20' W 094°34'0 0.0
2018-Apr-04 07:29N 29°20' W 094°34'0 0.0
2018-Apr-04 06:59N 29°20' W 094°34'0 0.0
2018-Apr-04 06:29N 29°20' W 094°34'0 0.0
2018-Apr-04 05:59N 29°20' W 094°34'0 0.1
2018-Apr-04 05:29N 29°20' W 094°34'0 0.0
2018-Apr-04 04:59N 29°20' W 094°34'0 0.0
2018-Apr-04 04:23N 29°20' W 094°34'0 0.0
2018-Apr-04 03:50N 29°20' W 094°34'0 0.0
2018-Apr-04 03:29N 29°20' W 094°34'0 0.0
2018-Apr-04 02:59N 29°20' W 094°34'0 0.0
2018-Apr-04 02:26N 29°20' W 094°34'0 0.0
2018-Apr-04 01:59N 29°20' W 094°34'0 0.0
2018-Apr-04 01:29N 29°20' W 094°34'0 0.0
2018-Apr-04 00:59N 29°20' W 094°34'0 0.0
2018-Apr-04 00:29N 29°20' W 094°34'0 0.0
2018-Apr-03 23:59N 29°20' W 094°34'0 0.0
2018-Apr-03 23:29N 29°20' W 094°34'0 0.0
2018-Apr-03 22:59N 29°20' W 094°34'0 0.1
2018-Apr-03 22:29N 29°20' W 094°34'0 0.1
2018-Apr-03 21:59N 29°20' W 094°34'0 0.1
2018-Apr-03 21:26N 29°20' W 094°34'0 0.0
2018-Apr-03 20:59N 29°20' W 094°34'0 0.0
2018-Apr-03 20:29N 29°20' W 094°34'0 0.1
2018-Apr-03 19:59N 29°20' W 094°34'0 0.0
2018-Apr-03 19:29N 29°20' W 094°34'0 0.0
2018-Apr-03 18:59N 29°20' W 094°34'0 0.0
2018-Apr-03 18:29N 29°20' W 094°34'0 0.1
2018-Apr-03 17:59N 29°20' W 094°34'0 0.0
2018-Apr-03 17:23N 29°20' W 094°34'0 0.1
2018-Apr-03 16:59N 29°20' W 094°34'0 0.0
2018-Apr-03 16:20N 29°20' W 094°34'0 0.2
2018-Apr-03 15:59N 29°20' W 094°34'0 0.2
2018-Apr-03 15:29N 29°20' W 094°34'0 0.0
2018-Apr-03 14:59N 29°20' W 094°34'0 0.0
2018-Apr-03 14:29N 29°20' W 094°34'0 0.0
2018-Apr-03 13:53N 29°20' W 094°34'0 0.0
2018-Apr-03 13:29N 29°20' W 094°34'0 0.0
2018-Apr-03 12:59N 29°20' W 094°34'0 0.0
2018-Apr-03 12:29N 29°20' W 094°34'0 0.0
2018-Apr-03 11:56N 29°20' W 094°34'0 0.0
2018-Apr-03 11:26N 29°20' W 094°34'0 0.0
2018-Apr-03 10:59N 29°20' W 094°34'0 0.0
2018-Apr-03 10:29N 29°20' W 094°34'0 0.0
2018-Apr-03 09:56N 29°20' W 094°34'0 0.0
2018-Apr-03 09:29N 29°20' W 094°34'  
Track history (hours):
 
Tides and Currents Weather Stations Pressure Air Temp Water Temp Dewpoint Dewpoint Depression Visibility Wind Speed Wind Dir Waves Ship Positions

Hanjin Valencia

Last reported at 2018-Apr-13 09:00 UTC. Time now 2018-Apr-19 21:16 UTC.
Position N 29°00' W 094°09'.

Length 183 m; draft 10.9 m.

Type: Tanker. MMSI: 374057000.

Date/timePositionNaut miles runAvg speedWind from/ knotsBaromVisibWave heightAir tempDewpointWater temp
2018-Apr-13 09:00N 29°00' W 094°09'713.0
2018-Apr-13 08:29N 29°04' W 094°15'712.8
2018-Apr-13 07:55N 29°08' W 094°22'512.6
2018-Apr-13 07:30N 29°09' W 094°28'712.6
2018-Apr-13 06:57N 29°14' W 094°34'511.4
2018-Apr-13 06:30N 29°18' W 094°37'611.6
2018-Apr-13 06:00N 29°21' W 094°43'611.1
2018-Apr-13 05:30N 29°24' W 094°49'611.8
2018-Apr-13 05:00N 29°29' W 094°52'611.7
2018-Apr-13 04:30N 29°34' W 094°55'611.2
2018-Apr-13 04:00N 29°39' W 094°58'4 8.7
2018-Apr-13 03:30N 29°42' W 095°01'3 6.7
2018-Apr-13 03:00N 29°45' W 095°04'2 4.8
2018-Apr-13 02:30N 29°44' W 095°07'3 5.2
2018-Apr-13 02:00N 29°44' W 095°10'2 4.2
2018-Apr-13 01:30N 29°44' W 095°12'0 0.0
2018-Apr-12 13:50N 29°45' W 095°12'0 0.0
2018-Apr-12 13:05N 29°45' W 095°12'0 0.0
2018-Apr-12 12:41N 29°45' W 095°12'0 0.0
2018-Apr-12 12:26N 29°45' W 095°12'0 0.0
2018-Apr-12 08:11N 29°45' W 095°12'0 0.0
2018-Apr-12 07:53N 29°45' W 095°12'0 0.0
2018-Apr-12 07:23N 29°45' W 095°12'0 0.0
2018-Apr-12 06:56N 29°45' W 095°12'0 0.0
2018-Apr-12 05:32N 29°45' W 095°12'0 0.0
2018-Apr-12 05:20N 29°45' W 095°12'0 0.0
2018-Apr-12 04:59N 29°45' W 095°12'0 0.0
2018-Apr-12 03:47N 29°45' W 095°12'0 0.0
2018-Apr-12 03:26N 29°45' W 095°12'0 0.0
2018-Apr-10 23:14N 29°45' W 095°12'0 0.0
2018-Apr-10 22:59N 29°45' W 095°12'0 0.2
2018-Apr-10 22:30N 29°44' W 095°12'3 5.7
2018-Apr-10 22:01N 29°44' W 095°09'3 6.1
2018-Apr-10 21:30N 29°45' W 095°06'4 7.2
2018-Apr-10 21:01N 29°44' W 095°02'5 9.2
2018-Apr-10 20:30N 29°40' W 094°59'611.9
2018-Apr-10 20:01N 29°35' W 094°56'612.9
2018-Apr-10 19:31N 29°29' W 094°52'714.0
2018-Apr-10 19:00N 29°23' W 094°49'713.3
2018-Apr-10 18:30N 29°20' W 094°41'6 1.6
2018-Apr-10 14:57N 29°20' W 094°35'0 0.0
2018-Apr-10 14:18N 29°20' W 094°35'0 0.0
2018-Apr-10 13:57N 29°20' W 094°35'0 0.0
2018-Apr-10 13:27N 29°20' W 094°35'0 0.0
2018-Apr-10 13:00N 29°20' W 094°35'0 0.0
2018-Apr-10 12:30N 29°20' W 094°35'0 0.0
2018-Apr-10 12:00N 29°20' W 094°35'0 0.0
2018-Apr-10 11:30N 29°20' W 094°35'0 0.0
2018-Apr-10 11:00N 29°20' W 094°35'0 0.0
2018-Apr-10 10:27N 29°20' W 094°35'0 0.0
2018-Apr-10 10:00N 29°20' W 094°35'0 0.0
2018-Apr-10 09:15N 29°20' W 094°35'0 0.0
2018-Apr-10 08:57N 29°20' W 094°35'0 0.0
2018-Apr-10 07:39N 29°20' W 094°35'0 0.0
2018-Apr-10 07:24N 29°20' W 094°35'0 0.1
2018-Apr-10 06:48N 29°20' W 094°35'0 0.0
2018-Apr-10 00:00N 29°20' W 094°35'0 0.0
2018-Apr-09 00:47N 29°20' W 094°35'0 0.0
2018-Apr-08 10:23N 29°20' W 094°35'0 0.0
2018-Apr-07 05:38N 29°20' W 094°35'0 0.0
2018-Apr-07 05:29N 29°20' W 094°35'0 0.0
2018-Apr-07 02:35N 29°20' W 094°35'0 0.1
2018-Apr-07 02:17N 29°20' W 094°35'0 0.1
2018-Apr-07 00:41N 29°20' W 094°35'0 0.0
2018-Apr-07 00:23N 29°20' W 094°35'0 0.0
2018-Apr-06 12:23N 29°20' W 094°35'0 0.0
2018-Apr-06 10:53N 29°20' W 094°35'0 0.0
2018-Apr-06 10:02N 29°20' W 094°35'0 0.0
2018-Apr-06 09:50N 29°20' W 094°35'0 0.0
2018-Apr-06 09:11N 29°20' W 094°35'0 0.0
2018-Apr-06 05:41N 29°20' W 094°35'8 1.1
2018-Apr-05 22:03N 29°21' W 094°44'112.6
2018-Apr-05 22:00N 29°21' W 094°45'511.0
2018-Apr-05 21:30N 29°24' W 094°49'611.6
2018-Apr-05 21:00N 29°30' W 094°52'611.5
2018-Apr-05 20:31N 29°34' W 094°56'5 9.2
2018-Apr-05 20:00N 29°39' W 094°58'5 9.1
2018-Apr-05 19:30N 29°42' W 095°01'4 7.6
2018-Apr-05 19:01N 29°45' W 095°04'3 6.5
2018-Apr-05 18:31N 29°44' W 095°07'3 5.9
2018-Apr-05 18:00N 29°45' W 095°11'1 0.0
2018-Apr-04 21:06N 29°45' W 095°11'0 0.0
2018-Apr-04 21:00N 29°45' W 095°11'1 2.0
2018-Apr-04 20:30N 29°45' W 095°10'3 6.0
2018-Apr-04 20:00N 29°44' W 095°07'3 5.8
2018-Apr-04 19:30N 29°44' W 095°03'9 9.1
2018-Apr-04 18:30N 29°37' W 094°57'612.3
2018-Apr-04 18:00N 29°32' W 094°54'713.4
2018-Apr-04 17:30N 29°26' W 094°50'712.9
2018-Apr-04 16:58N 29°21' W 094°44'613.0
2018-Apr-04 16:29N 29°19' W 094°38'4 7.4
2018-Apr-04 15:57N 29°20' W 094°34'0 0.2
2018-Apr-04 15:29N 29°20' W 094°34'0 0.0
2018-Apr-04 14:56N 29°20' W 094°34'0 0.0
2018-Apr-04 14:29N 29°20' W 094°34'0 0.0
2018-Apr-04 13:59N 29°20' W 094°34'0 0.0
2018-Apr-04 13:29N 29°20' W 094°34'0 0.0
2018-Apr-04 12:56N 29°20' W 094°34'0 0.0
2018-Apr-04 12:29N 29°20' W 094°34'0 0.0
2018-Apr-04 11:59N 29°20' W 094°34'0 0.0
2018-Apr-04 11:29N 29°20' W 094°34'0 0.0
2018-Apr-04 10:59N 29°20' W 094°34'0 0.0
2018-Apr-04 10:29N 29°20' W 094°34'0 0.0
2018-Apr-04 09:59N 29°20' W 094°34'0 0.0
2018-Apr-04 09:29N 29°20' W 094°34'0 0.0
2018-Apr-04 08:59N 29°20' W 094°34'0 0.0
2018-Apr-04 08:29N 29°20' W 094°34'0 0.0
2018-Apr-04 07:59N 29°20' W 094°34'0 0.0
2018-Apr-04 07:29N 29°20' W 094°34'0 0.0
2018-Apr-04 06:59N 29°20' W 094°34'0 0.0
2018-Apr-04 06:29N 29°20' W 094°34'0 0.0
2018-Apr-04 05:59N 29°20' W 094°34'0 0.1
2018-Apr-04 05:29N 29°20' W 094°34'0 0.0
2018-Apr-04 04:59N 29°20' W 094°34'0 0.0
2018-Apr-04 04:23N 29°20' W 094°34'0 0.0
2018-Apr-04 03:50N 29°20' W 094°34'0 0.0
2018-Apr-04 03:29N 29°20' W 094°34'0 0.0
2018-Apr-04 02:59N 29°20' W 094°34'0 0.0
2018-Apr-04 02:26N 29°20' W 094°34'0 0.0
2018-Apr-04 01:59N 29°20' W 094°34'0 0.0
2018-Apr-04 01:29N 29°20' W 094°34'0 0.0
2018-Apr-04 00:59N 29°20' W 094°34'0 0.0
2018-Apr-04 00:29N 29°20' W 094°34'0 0.0
2018-Apr-03 23:59N 29°20' W 094°34'0 0.0
2018-Apr-03 23:29N 29°20' W 094°34'0 0.0
2018-Apr-03 22:59N 29°20' W 094°34'0 0.1
2018-Apr-03 22:29N 29°20' W 094°34'0 0.1
2018-Apr-03 21:59N 29°20' W 094°34'0 0.1
2018-Apr-03 21:26N 29°20' W 094°34'0 0.0
2018-Apr-03 20:59N 29°20' W 094°34'0 0.0
2018-Apr-03 20:29N 29°20' W 094°34'0 0.1
2018-Apr-03 19:59N 29°20' W 094°34'0 0.0
2018-Apr-03 19:29N 29°20' W 094°34'0 0.0
2018-Apr-03 18:59N 29°20' W 094°34'0 0.0
2018-Apr-03 18:29N 29°20' W 094°34'0 0.1
2018-Apr-03 17:59N 29°20' W 094°34'0 0.0
2018-Apr-03 17:23N 29°20' W 094°34'0 0.1
2018-Apr-03 16:59N 29°20' W 094°34'0 0.0
2018-Apr-03 16:20N 29°20' W 094°34'0 0.2
2018-Apr-03 15:59N 29°20' W 094°34'0 0.2
2018-Apr-03 15:29N 29°20' W 094°34'0 0.0
2018-Apr-03 14:59N 29°20' W 094°34'0 0.0
2018-Apr-03 14:29N 29°20' W 094°34'0 0.0
2018-Apr-03 13:53N 29°20' W 094°34'0 0.0
2018-Apr-03 13:29N 29°20' W 094°34'0 0.0
2018-Apr-03 12:59N 29°20' W 094°34'0 0.0
2018-Apr-03 12:29N 29°20' W 094°34'0 0.0
2018-Apr-03 11:56N 29°20' W 094°34'0 0.0
2018-Apr-03 11:26N 29°20' W 094°34'0 0.0
2018-Apr-03 10:59N 29°20' W 094°34'0 0.0
2018-Apr-03 10:29N 29°20' W 094°34'0 0.0
2018-Apr-03 09:56N 29°20' W 094°34'0 0.0
2018-Apr-03 09:29N 29°20' W 094°34'  

Dump ship's entire track history